Time;durP1;ratioP1;P1;durP2;ratioP2;P2;SDS_P1;SDS_P2;PMS_P1;PMS_P2;Temp;Humidity;BMP_temperature;BMP_pressure;BME280_temperature;BME280_humidity;BME280_pressure;Samples;Min_cycle;Max_cycle;Signal;HPM_P1;HPM_P2
2020/12/03 06:00:27;;;;;;;51.43;18.37;;;0.00;97.30;;;;;;6029629;23;20393;31
2020/12/03 06:03:08;;;;;;;47.23;18.50;;;0.00;97.30;;;;;;4939959;29;20475;-81
2020/12/03 06:05:53;;;;;;;48.10;17.80;;;0.00;97.30;;;;;;4944033;29;20423;-82
2020/12/03 06:08:45;;;;;;;48.77;18.33;;;0.00;97.30;;;;;;4944908;29;20428;-82
2020/12/03 06:11:22;;;;;;;48.23;18.20;;;0.00;97.30;;;;;;4941471;29;20491;-81
2020/12/03 06:14:21;;;;;;;49.40;17.80;;;0.00;97.30;;;;;;4928275;29;20948;-81
2020/12/03 06:17:13;;;;;;;51.57;18.50;;;0.00;97.30;;;;;;4895167;29;20436;-81
2020/12/03 06:20:00;;;;;;;40.63;16.80;;;0.00;97.30;;;;;;4934635;29;20475;-80
2020/12/03 06:23:03;;;;;;;49.43;18.03;;;0.00;97.30;;;;;;4926502;29;20448;-80
2020/12/03 06:25:43;;;;;;;45.30;18.03;;;0.00;97.30;;;;;;4924202;29;20429;-80
2020/12/03 06:28:31;;;;;;;47.43;17.87;;;0.00;97.30;;;;;;4923855;29;20428;-80
2020/12/03 06:31:06;;;;;;;45.90;17.73;;;0.00;97.30;;;;;;4923078;29;20456;-80
2020/12/03 06:33:31;;;;;;;42.80;17.63;;;0.00;97.30;;;;;;4921988;29;20460;-80
2020/12/03 06:36:16;;;;;;;55.07;18.77;;;0.00;97.30;;;;;;4909822;29;20429;-80
2020/12/03 06:39:40;;;;;;;45.77;17.07;;;0.00;97.30;;;;;;4919783;29;20260;-79
2020/12/03 06:42:28;;;;;;;47.67;19.00;;;0.00;97.30;;;;;;4869374;29;20450;-81
2020/12/03 06:45:17;;;;;;;41.53;16.37;;;0.00;97.30;;;;;;4869817;29;20418;-79
2020/12/03 06:47:54;;;;;;;46.77;17.60;;;0.00;97.30;;;;;;4870860;29;20466;-81
2020/12/03 06:50:38;;;;;;;46.27;18.57;;;0.00;97.30;;;;;;4921196;29;20480;-81
2020/12/03 06:53:34;;;;;;;41.43;16.37;;;0.00;97.30;;;;;;4921313;29;20492;-81
2020/12/03 06:56:37;;;;;;;39.80;17.10;;;0.00;97.30;;;;;;4921498;29;20436;-82
2020/12/03 06:59:33;;;;;;;49.43;18.70;;;0.00;97.30;;;;;;4920774;29;20461;-81
2020/12/03 07:02:07;;;;;;;52.77;17.27;;;0.00;97.30;;;;;;4920574;29;20540;-80
2020/12/03 07:04:43;;;;;;;38.47;16.87;;;0.00;97.30;;;;;;4919493;29;20417;-79
2020/12/03 07:07:53;;;;;;;38.40;15.77;;;0.00;97.30;;;;;;4920300;29;20433;-81
2020/12/03 07:11:12;;;;;;;40.30;17.57;;;0.00;97.30;;;;;;4909512;29;20508;-80
2020/12/03 07:13:39;;;;;;;39.60;15.50;;;0.00;97.30;;;;;;4867630;29;20430;-81
2020/12/03 07:16:17;;;;;;;47.97;17.70;;;0.00;97.30;;;;;;4869106;29;20475;-80
2020/12/03 07:18:51;;;;;;;48.53;18.77;;;0.00;97.30;;;;;;4890564;29;20461;-80
2020/12/03 07:21:59;;;;;;;46.03;17.00;;;0.00;97.30;;;;;;4919517;29;20471;-81
2020/12/03 07:24:29;;;;;;;41.60;18.43;;;0.00;97.30;;;;;;4913669;29;20425;-80
2020/12/03 07:27:11;;;;;;;42.70;17.20;;;0.00;97.30;;;;;;4917646;29;20421;-81
2020/12/03 07:29:56;;;;;;;41.00;17.27;;;0.00;97.30;;;;;;4921474;29;20981;-82
2020/12/03 07:32:40;;;;;;;44.37;16.50;;;0.00;97.30;;;;;;4921231;29;20967;-81
2020/12/03 07:35:21;;;;;;;47.47;17.13;;;0.00;97.30;;;;;;4919565;29;20429;-80
2020/12/03 07:38:08;;;;;;;41.80;17.10;;;0.00;97.30;;;;;;4920302;29;20513;-82
2020/12/03 07:40:34;;;;;;;39.80;15.73;;;0.00;97.30;;;;;;4920682;29;20456;-80
2020/12/03 07:43:32;;;;;;;45.30;16.20;;;0.00;97.30;;;;;;4917881;29;20433;-81
2020/12/03 07:45:59;;;;;;;44.07;16.80;;;0.00;97.30;;;;;;4901241;29;20201;-81
2020/12/03 07:48:32;;;;;;;60.87;18.87;;;0.00;97.30;;;;;;4919388;29;20831;-81
2020/12/03 07:51:01;;;;;;;41.63;17.67;;;0.00;97.30;;;;;;4918910;29;20516;-80
2020/12/03 07:53:27;;;;;;;45.83;17.80;;;0.00;97.30;;;;;;4919217;29;20437;-82
2020/12/03 07:55:53;;;;;;;47.10;16.60;;;0.00;97.30;;;;;;4919401;29;20425;-80
2020/12/03 07:58:36;;;;;;;39.27;15.07;;;0.10;97.30;;;;;;4917947;29;20471;-80
2020/12/03 08:01:20;;;;;;;46.67;16.73;;;0.00;97.30;;;;;;4918679;29;20273;-80
2020/12/03 08:03:50;;;;;;;45.57;18.90;;;0.10;97.30;;;;;;4918555;29;20925;-80
2020/12/03 08:06:32;;;;;;;36.23;13.37;;;0.10;97.30;;;;;;4919797;29;20426;-82
2020/12/03 08:09:01;;;;;;;41.20;16.83;;;0.10;97.30;;;;;;4919480;29;20426;-81
2020/12/03 08:11:46;;;;;;;42.77;16.30;;;0.10;97.30;;;;;;4919749;29;20457;-81
2020/12/03 08:14:34;;;;;;;40.10;16.27;;;0.10;97.30;;;;;;4918581;29;20481;-80
2020/12/03 08:17:00;;;;;;;41.67;15.47;;;0.10;97.30;;;;;;4902583;29;20996;-80
2020/12/03 08:19:33;;;;;;;46.50;17.63;;;0.10;97.30;;;;;;4915973;29;20489;-79
2020/12/03 08:21:59;;;;;;;40.77;14.77;;;0.10;97.30;;;;;;4918794;29;20446;-79
2020/12/03 08:24:26;;;;;;;51.40;17.03;;;0.10;97.30;;;;;;4918035;29;20430;-80
2020/12/03 08:27:15;;;;;;;49.20;15.33;;;0.10;97.30;;;;;;4916296;29;20659;-79
2020/12/03 08:29:42;;;;;;;44.17;16.40;;;0.10;97.30;;;;;;4897295;29;20432;-80
2020/12/03 08:32:08;;;;;;;44.50;17.03;;;0.10;97.30;;;;;;4917077;29;20822;-80
2020/12/03 08:34:35;;;;;;;46.60;16.80;;;0.20;97.30;;;;;;4924273;29;20432;-80
2020/12/03 08:37:03;;;;;;;44.37;16.90;;;0.20;97.30;;;;;;4928185;29;20421;-80
2020/12/03 08:39:33;;;;;;;44.17;15.70;;;0.20;97.30;;;;;;4917379;29;20473;-78
2020/12/03 08:42:00;;;;;;;47.53;15.57;;;0.20;97.30;;;;;;4915811;29;20481;-80
2020/12/03 08:44:28;;;;;;;43.70;15.93;;;0.20;97.30;;;;;;4916526;29;20441;-81
2020/12/03 08:46:58;;;;;;;44.20;17.03;;;0.30;97.30;;;;;;4919934;29;20425;-81
2020/12/03 08:49:24;;;;;;;42.10;16.20;;;0.30;97.30;;;;;;4918966;29;20436;-81
2020/12/03 08:51:52;;;;;;;39.30;14.50;;;0.30;97.30;;;;;;4919186;29;20817;-79
2020/12/03 08:54:29;;;;;;;42.23;17.43;;;0.30;97.10;;;;;;4902072;29;20430;-80
2020/12/03 08:57:15;;;;;;;39.50;15.70;;;0.30;97.20;;;;;;4903369;29;20417;-81
2020/12/03 09:00:08;;;;;;;43.43;16.10;;;0.30;97.30;;;;;;4917059;29;20473;-81
2020/12/03 09:02:35;;;;;;;38.10;14.30;;;0.30;97.30;;;;;;4915120;29;20544;-80
2020/12/03 09:05:00;;;;;;;39.23;15.30;;;0.30;97.10;;;;;;4917152;29;20457;-80
2020/12/03 09:07:40;;;;;;;37.20;15.30;;;0.30;96.80;;;;;;4917247;29;20414;-80
2020/12/03 09:10:09;;;;;;;35.53;15.27;;;0.30;96.80;;;;;;4917073;29;20185;-80
2020/12/03 09:12:38;;;;;;;35.40;14.03;;;0.30;96.60;;;;;;4916782;29;20450;-80
2020/12/03 09:15:11;;;;;;;37.23;14.83;;;0.30;96.40;;;;;;4915791;29;20508;-79
2020/12/03 09:17:42;;;;;;;40.07;13.90;;;0.40;96.60;;;;;;4916004;29;20433;-80
2020/12/03 09:20:10;;;;;;;33.37;13.97;;;0.40;96.00;;;;;;4914765;29;20560;-79
2020/12/03 09:22:38;;;;;;;47.03;14.77;;;0.40;96.10;;;;;;4915538;29;20448;-80
2020/12/03 09:25:13;;;;;;;36.00;14.07;;;0.50;96.10;;;;;;4916060;29;20425;-80
2020/12/03 09:27:44;;;;;;;34.23;13.70;;;0.50;96.20;;;;;;4916286;29;20425;-80
2020/12/03 09:30:25;;;;;;;45.10;16.20;;;0.50;96.00;;;;;;4916036;29;20426;-79
2020/12/03 09:33:00;;;;;;;33.43;13.63;;;0.60;96.10;;;;;;4920331;29;20433;-79
2020/12/03 09:35:28;;;;;;;31.70;12.73;;;0.60;96.10;;;;;;4920169;29;20827;-79
2020/12/03 09:38:06;;;;;;;36.77;13.93;;;0.60;96.00;;;;;;4919504;29;20508;-81
2020/12/03 09:40:33;;;;;;;34.63;13.37;;;0.60;95.60;;;;;;4918961;29;20433;-79
2020/12/03 09:43:00;;;;;;;40.83;12.73;;;0.70;95.80;;;;;;4918263;29;20432;-78
2020/12/03 09:45:34;;;;;;;31.33;12.07;;;0.70;95.60;;;;;;4918205;29;20945;-79
2020/12/03 09:48:02;;;;;;;37.03;14.30;;;0.70;95.20;;;;;;4902992;29;20425;-79
2020/12/03 09:50:28;;;;;;;33.53;13.47;;;0.60;95.30;;;;;;4917628;29;20436;-78
2020/12/03 09:52:54;;;;;;;33.27;13.50;;;0.70;95.70;;;;;;4918398;29;20418;-79
2020/12/03 09:55:20;;;;;;;35.10;13.37;;;0.70;95.70;;;;;;4916871;29;20481;-77
2020/12/03 09:57:56;;;;;;;38.67;14.93;;;0.70;95.80;;;;;;4918378;29;20429;-79
2020/12/03 10:00:39;;;;;;;38.63;13.20;;;0.70;96.10;;;;;;4919460;29;20200;-79
2020/12/03 10:03:46;;;;;;;34.80;13.47;;;0.70;96.00;;;;;;4918333;29;20429;-78
2020/12/03 10:06:24;;;;;;;40.73;14.90;;;0.70;96.10;;;;;;4916948;29;20924;-78
2020/12/03 10:09:03;;;;;;;36.00;15.50;;;0.80;96.30;;;;;;4903027;29;20413;-79
2020/12/03 10:11:46;;;;;;;49.40;16.73;;;0.80;96.20;;;;;;4916982;29;20479;-77
2020/12/03 10:14:20;;;;;;;40.10;14.60;;;0.80;96.10;;;;;;4916430;29;20425;-78
2020/12/03 10:16:49;;;;;;;40.57;14.20;;;0.80;96.10;;;;;;4916077;29;20451;-78
2020/12/03 10:19:17;;;;;;;51.63;16.73;;;0.80;96.30;;;;;;4916072;29;20469;-78
2020/12/03 10:21:57;;;;;;;37.83;14.03;;;0.90;96.30;;;;;;4916133;29;20452;-78
2020/12/03 10:24:27;;;;;;;39.80;14.97;;;0.90;96.20;;;;;;4916360;29;20425;-78
2020/12/03 10:27:21;;;;;;;38.83;15.17;;;0.90;95.80;;;;;;4916953;29;20417;-75
2020/12/03 10:30:07;;;;;;;46.30;16.00;;;0.90;96.20;;;;;;4901444;29;20433;-76
2020/12/03 10:32:36;;;;;;;43.97;16.00;;;0.90;96.00;;;;;;4915577;29;20449;-74
2020/12/03 10:35:04;;;;;;;40.13;16.20;;;0.90;95.90;;;;;;4905181;29;20421;-74
2020/12/03 10:37:43;;;;;;;44.60;16.43;;;0.90;96.10;;;;;;4919824;29;20428;-74
2020/12/03 10:40:18;;;;;;;51.00;16.00;;;1.00;96.10;;;;;;4934199;29;20490;-74
2020/12/03 10:43:07;;;;;;;37.13;14.27;;;1.00;96.00;;;;;;4918629;29;20431;-75
2020/12/03 10:45:38;;;;;;;41.43;14.10;;;1.00;96.10;;;;;;4934075;29;20427;-74
2020/12/03 10:48:22;;;;;;;41.50;15.30;;;1.00;96.00;;;;;;4919419;29;20504;-75
2020/12/03 10:50:49;;;;;;;40.20;14.80;;;1.00;95.90;;;;;;4934032;29;20448;-70
2020/12/03 10:53:19;;;;;;;38.80;14.13;;;1.00;95.90;;;;;;4918600;29;20416;-71
2020/12/03 10:55:53;;;;;;;33.60;14.50;;;1.00;95.80;;;;;;4933574;29;20985;-71
2020/12/03 10:58:22;;;;;;;35.90;14.07;;;1.00;95.50;;;;;;4933509;29;20488;-71
2020/12/03 11:00:48;;;;;;;36.70;15.30;;;1.00;95.60;;;;;;4918899;29;20456;-72
2020/12/03 11:03:21;;;;;;;37.90;14.73;;;1.10;95.70;;;;;;4918863;29;20437;-71
2020/12/03 11:05:46;;;;;;;34.17;14.20;;;1.10;95.60;;;;;;4930634;29;20448;-73
2020/12/03 11:08:12;;;;;;;33.33;13.73;;;1.10;95.40;;;;;;4933355;29;20527;-75
2020/12/03 11:10:40;;;;;;;38.73;13.77;;;1.20;95.40;;;;;;4933464;29;20204;-77
2020/12/03 11:13:07;;;;;;;37.60;14.50;;;1.20;95.30;;;;;;4925143;29;20777;-82
2020/12/03 11:15:33;;;;;;;36.90;14.17;;;1.20;94.90;;;;;;4941729;29;20432;-81
2020/12/03 11:18:10;;;;;;;31.90;14.03;;;1.20;95.40;;;;;;4938698;29;20424;-83
2020/12/03 11:20:37;;;;;;;35.23;13.60;;;1.20;95.20;;;;;;4938402;29;20451;-82
2020/12/03 11:23:06;;;;;;;35.37;14.20;;;1.20;95.00;;;;;;4937768;29;20448;-82
2020/12/03 11:25:33;;;;;;;36.17;12.70;;;1.20;95.20;;;;;;4922288;29;20464;-81
2020/12/03 11:28:11;;;;;;;42.77;14.77;;;1.20;95.00;;;;;;4934985;29;20428;-69
2020/12/03 11:30:37;;;;;;;40.23;15.43;;;1.30;95.20;;;;;;4917124;29;20532;-68
2020/12/03 11:33:03;;;;;;;37.93;14.27;;;1.30;95.20;;;;;;4918333;29;20503;-68
2020/12/03 11:35:32;;;;;;;35.83;14.10;;;1.30;95.10;;;;;;4917530;29;20212;-70
2020/12/03 11:38:00;;;;;;;34.97;14.60;;;1.30;94.80;;;;;;4932633;29;20642;-70
2020/12/03 11:40:39;;;;;;;34.60;13.67;;;1.40;94.90;;;;;;4932973;29;20436;-70
2020/12/03 11:43:36;;;;;;;34.63;13.67;;;1.50;95.20;;;;;;4917702;29;20508;-71
2020/12/03 11:48:57;;;;;;;44.20;15.27;;;1.50;94.90;;;;;;4917903;29;20428;-71
2020/12/03 11:51:32;;;;;;;37.97;14.17;;;1.60;95.00;;;;;;4932560;29;21041;-70
2020/12/03 11:54:08;;;;;;;35.93;13.13;;;1.60;95.10;;;;;;4915976;29;20424;-71
2020/12/03 11:56:37;;;;;;;40.13;14.67;;;1.60;94.90;;;;;;4932300;29;20528;-69
2020/12/03 11:59:15;;;;;;;39.20;14.23;;;1.60;95.10;;;;;;4918142;29;20947;-69
2020/12/03 12:01:53;;;;;;;28.83;11.97;;;1.60;95.10;;;;;;4915930;29;20480;-69
2020/12/03 12:04:23;;;;;;;35.03;13.87;;;1.60;94.90;;;;;;4917311;29;20427;-69
2020/12/03 12:09:34;;;;;;;34.90;13.33;;;1.70;95.10;;;;;;4917428;29;20400;-69
2020/12/03 12:12:00;;;;;;;40.23;14.23;;;1.70;95.00;;;;;;4915333;29;20440;-69
2020/12/03 12:14:25;;;;;;;32.40;13.57;;;1.80;95.30;;;;;;4917037;29;20426;-71
2020/12/03 12:16:53;;;;;;;37.80;14.63;;;1.80;95.00;;;;;;4917345;29;20176;-70
2020/12/03 12:19:19;;;;;;;36.90;13.23;;;1.80;95.00;;;;;;4916994;29;20200;-71
2020/12/03 12:21:44;;;;;;;33.73;14.80;;;1.70;95.00;;;;;;4916714;29;20547;-81
2020/12/03 12:24:10;;;;;;;30.70;13.70;;;1.70;95.10;;;;;;4919481;29;20447;-69
2020/12/03 12:26:36;;;;;;;32.40;14.13;;;1.70;95.10;;;;;;4931747;29;20187;-69
2020/12/03 12:29:01;;;;;;;34.90;12.47;;;1.70;95.10;;;;;;4917632;29;20187;-70
2020/12/03 12:31:27;;;;;;;32.20;12.80;;;1.70;95.30;;;;;;4916838;29;20204;-79
2020/12/03 12:33:53;;;;;;;28.37;12.60;;;1.80;95.20;;;;;;4923400;29;20275;-79
2020/12/03 12:36:18;;;;;;;26.90;12.20;;;1.80;95.20;;;;;;4917592;29;20669;-79
2020/12/03 12:38:44;;;;;;;35.93;13.37;;;1.80;95.10;;;;;;4921598;29;20209;-79
2020/12/03 12:41:10;;;;;;;36.13;13.90;;;1.80;95.00;;;;;;4900197;29;20201;-79
2020/12/03 12:43:36;;;;;;;30.70;12.80;;;1.80;95.00;;;;;;4915411;29;20207;-71
2020/12/03 12:46:02;;;;;;;34.63;12.00;;;1.80;95.20;;;;;;4922056;29;20432;-72
2020/12/03 12:48:27;;;;;;;33.47;13.07;;;1.80;95.20;;;;;;4951088;29;20669;-71
2020/12/03 12:50:53;;;;;;;34.03;13.00;;;1.80;95.30;;;;;;4941357;29;20223;-72
2020/12/03 12:53:19;;;;;;;36.27;13.90;;;1.80;95.20;;;;;;4931842;29;20714;-71
2020/12/03 12:55:45;;;;;;;28.30;11.17;;;1.90;95.20;;;;;;4935892;29;20196;-74
2020/12/03 12:58:10;;;;;;;29.00;12.23;;;1.90;95.30;;;;;;4950716;29;20562;-69
2020/12/03 13:00:36;;;;;;;31.37;11.73;;;1.90;95.20;;;;;;4947224;29;20228;-71
2020/12/03 13:03:02;;;;;;;35.47;13.10;;;1.90;95.10;;;;;;4917093;29;20200;-70
2020/12/03 13:05:28;;;;;;;29.10;11.43;;;1.90;95.30;;;;;;4920384;29;20420;-67
2020/12/03 13:07:53;;;;;;;31.87;12.23;;;1.80;95.30;;;;;;4931384;29;20180;-66
2020/12/03 13:10:19;;;;;;;30.60;11.73;;;1.80;95.20;;;;;;4917188;29;20259;-66
2020/12/03 13:12:45;;;;;;;32.40;11.97;;;1.80;95.20;;;;;;4900933;29;20193;-66
2020/12/03 13:15:11;;;;;;;27.93;11.03;;;1.80;95.50;;;;;;4904762;29;20212;-66
2020/12/03 13:17:38;;;;;;;27.80;12.83;;;1.80;95.50;;;;;;4915659;29;20432;-67
2020/12/03 13:20:04;;;;;;;29.33;11.40;;;1.80;95.80;;;;;;4915575;29;20464;-67
2020/12/03 13:22:30;;;;;;;28.77;12.57;;;1.80;95.70;;;;;;4931527;29;20448;-67
2020/12/03 13:24:55;;;;;;;33.73;13.83;;;1.80;95.70;;;;;;4916762;29;20657;-68
2020/12/03 13:27:21;;;;;;;29.80;12.60;;;1.80;96.00;;;;;;4931777;29;20180;-67
2020/12/03 13:29:47;;;;;;;26.47;10.77;;;1.80;95.70;;;;;;4931150;29;20188;-67
2020/12/03 13:32:13;;;;;;;29.87;11.37;;;1.80;95.80;;;;;;4915747;29;20615;-67
2020/12/03 13:34:39;;;;;;;27.80;10.70;;;1.80;96.10;;;;;;4923257;29;20424;-78
2020/12/03 13:37:04;;;;;;;31.63;12.27;;;1.80;96.10;;;;;;4931460;29;20220;-68
2020/12/03 13:39:30;;;;;;;23.87;11.00;;;1.80;96.20;;;;;;4915436;29;20205;-68
2020/12/03 13:41:56;;;;;;;25.30;10.30;;;1.80;96.20;;;;;;4914542;29;20243;-75
2020/12/03 13:44:21;;;;;;;28.83;10.07;;;1.80;96.40;;;;;;4930867;29;20199;-76
2020/12/03 13:46:47;;;;;;;28.37;10.90;;;1.80;96.60;;;;;;4931375;29;20596;-76
2020/12/03 13:49:14;;;;;;;30.47;11.17;;;1.80;96.40;;;;;;4915714;29;20259;-76
2020/12/03 13:51:41;;;;;;;24.50;10.10;;;1.80;96.50;;;;;;4915817;29;20215;-76
2020/12/03 13:54:07;;;;;;;27.80;10.57;;;1.80;96.80;;;;;;4930972;29;20528;-68
2020/12/03 13:56:33;;;;;;;22.73;9.50;;;1.80;97.00;;;;;;4916447;29;20503;-68
2020/12/03 13:58:59;;;;;;;19.50;8.87;;;1.90;96.90;;;;;;4916618;29;20229;-68
2020/12/03 14:01:26;;;;;;;22.67;8.97;;;1.90;96.90;;;;;;4915086;29;20464;-69
2020/12/03 14:03:51;;;;;;;27.00;9.30;;;1.90;96.80;;;;;;4918969;29;20536;-69
2020/12/03 14:06:18;;;;;;;25.43;9.70;;;1.90;96.80;;;;;;4919379;29;20448;-75
2020/12/03 14:08:50;;;;;;;25.57;8.93;;;1.90;96.80;;;;;;4930949;29;20643;-76
2020/12/03 14:11:16;;;;;;;23.77;9.70;;;1.90;97.10;;;;;;4931259;29;20797;-76
2020/12/03 14:13:42;;;;;;;26.17;8.90;;;1.90;97.10;;;;;;4916494;29;20957;-67
2020/12/03 14:16:08;;;;;;;28.10;9.00;;;1.90;97.20;;;;;;4930735;29;20520;-68
2020/12/03 14:18:37;;;;;;;23.27;9.30;;;1.80;97.10;;;;;;4932834;29;20208;-68
2020/12/03 14:21:06;;;;;;;21.80;9.30;;;1.80;97.30;;;;;;4919459;29;20200;-68
2020/12/03 14:23:34;;;;;;;23.50;8.97;;;1.80;97.30;;;;;;4934263;29;20507;-68
2020/12/03 14:25:59;;;;;;;18.17;8.20;;;1.80;97.30;;;;;;4933908;29;20542;-68
2020/12/03 14:28:25;;;;;;;25.73;10.20;;;1.80;97.30;;;;;;4919787;29;20427;-69
2020/12/03 14:30:52;;;;;;;15.43;7.00;;;1.80;97.30;;;;;;4919565;29;20670;-68
2020/12/03 14:33:17;;;;;;;23.60;8.30;;;1.80;97.30;;;;;;4934122;29;20193;-69
2020/12/03 14:35:43;;;;;;;22.97;7.40;;;1.90;97.30;;;;;;4919208;29;20427;-69
2020/12/03 14:38:09;;;;;;;18.40;7.77;;;1.90;97.30;;;;;;4934064;29;20181;-69
2020/12/03 14:40:34;;;;;;;16.20;7.43;;;1.90;97.30;;;;;;4919560;29;20262;-68
2020/12/03 14:43:01;;;;;;;22.30;8.50;;;1.80;97.30;;;;;;4917908;29;20212;-68
2020/12/03 14:45:26;;;;;;;17.97;7.93;;;1.80;97.30;;;;;;4919248;29;20206;-68
2020/12/03 14:47:52;;;;;;;18.00;7.10;;;1.80;97.30;;;;;;4933975;29;20429;-68
2020/12/03 14:50:21;;;;;;;15.67;6.97;;;1.90;97.30;;;;;;4919203;29;20267;-69
2020/12/03 14:52:53;;;;;;;25.10;7.57;;;1.90;97.30;;;;;;4918692;29;20180;-69
2020/12/03 14:55:19;;;;;;;15.73;7.10;;;1.90;97.30;;;;;;4918798;29;20440;-69
2020/12/03 14:57:45;;;;;;;14.80;6.37;;;1.90;97.30;;;;;;4933334;29;20420;-68
2020/12/03 15:00:12;;;;;;;17.03;6.37;;;1.90;97.30;;;;;;4933880;29;20998;-68
2020/12/03 15:02:37;;;;;;;14.97;6.63;;;1.90;97.30;;;;;;4933388;29;20880;-69
2020/12/03 15:05:06;;;;;;;17.90;7.60;;;1.90;97.30;;;;;;4933524;29;20475;-68
2020/12/03 15:07:31;;;;;;;17.37;8.20;;;1.90;97.30;;;;;;4917544;29;20215;-68
2020/12/03 15:10:01;;;;;;;15.47;6.90;;;1.90;97.30;;;;;;4918059;29;20452;-67
2020/12/03 15:12:27;;;;;;;14.90;6.60;;;1.90;97.30;;;;;;4918602;29;20310;-71
2020/12/03 15:14:52;;;;;;;19.33;10.03;;;1.90;97.30;;;;;;4918500;29;20447;-68
2020/12/03 15:17:18;;;;;;;24.73;10.90;;;1.90;97.30;;;;;;4917599;29;20317;-68
2020/12/03 15:19:44;;;;;;;20.20;9.60;;;1.90;97.30;;;;;;4918970;29;20204;-68
2020/12/03 15:22:10;;;;;;;14.13;7.77;;;2.00;97.30;;;;;;4933333;29;20705;-67
2020/12/03 15:24:36;;;;;;;14.77;7.73;;;1.90;97.30;;;;;;4931989;29;20264;-68
2020/12/03 15:27:03;;;;;;;20.63;8.40;;;2.00;97.30;;;;;;4932966;29;21062;-69
2020/12/03 15:29:28;;;;;;;15.30;8.10;;;1.90;97.30;;;;;;4918365;29;20429;-67
2020/12/03 15:31:54;;;;;;;24.27;9.47;;;2.00;97.30;;;;;;4932806;29;20443;-68
2020/12/03 15:34:20;;;;;;;16.20;7.17;;;2.00;97.30;;;;;;4933163;29;20280;-69
2020/12/03 15:37:07;;;;;;;17.10;7.50;;;2.00;97.30;;;;;;4918130;29;20293;-68
2020/12/03 15:39:38;;;;;;;16.30;6.63;;;1.90;97.30;;;;;;4931773;29;20786;-68
2020/12/03 15:42:18;;;;;;;15.73;7.57;;;1.90;97.30;;;;;;4932657;29;20981;-68
2020/12/03 15:44:54;;;;;;;17.90;8.17;;;1.90;97.30;;;;;;4905097;29;20460;-69
2020/12/03 15:47:22;;;;;;;15.07;7.77;;;1.90;97.30;;;;;;4918296;29;20404;-68
2020/12/03 15:49:48;;;;;;;22.20;10.00;;;1.90;97.30;;;;;;4917558;29;20431;-68
2020/12/03 15:52:14;;;;;;;21.63;10.70;;;1.90;97.30;;;;;;4917629;29;20980;-68
2020/12/03 15:54:41;;;;;;;12.77;7.37;;;1.90;97.30;;;;;;4932705;29;20227;-68
2020/12/03 15:57:07;;;;;;;17.63;7.37;;;1.90;97.30;;;;;;4932348;29;20432;-68
2020/12/03 15:59:33;;;;;;;16.07;7.50;;;1.90;97.30;;;;;;4932392;29;20539;-68
2020/12/03 16:02:00;;;;;;;21.00;7.23;;;1.80;97.30;;;;;;4917524;29;20456;-68
2020/12/03 16:04:29;;;;;;;19.77;7.47;;;1.80;97.30;;;;;;4917624;29;20427;-67
2020/12/03 16:06:55;;;;;;;16.93;7.83;;;1.70;97.30;;;;;;4932346;29;20944;-68
2020/12/03 16:09:21;;;;;;;19.10;8.47;;;1.70;97.30;;;;;;4932411;29;21010;-68
2020/12/03 16:11:50;;;;;;;18.50;8.20;;;1.70;97.30;;;;;;4916603;29;20475;-67
2020/12/03 16:14:16;;;;;;;16.13;7.87;;;1.70;97.30;;;;;;4917486;29;20176;-68
2020/12/03 16:16:42;;;;;;;18.50;7.97;;;1.60;97.30;;;;;;4916754;29;20420;-68
2020/12/03 16:19:08;;;;;;;16.93;9.30;;;1.60;97.30;;;;;;4932171;29;20736;-67
2020/12/03 16:21:34;;;;;;;23.10;9.90;;;1.50;97.30;;;;;;4932315;29;20521;-67
2020/12/03 16:24:01;;;;;;;22.50;10.57;;;1.50;97.30;;;;;;4932023;29;20432;-68
2020/12/03 16:26:26;;;;;;;19.20;7.30;;;1.50;97.30;;;;;;4931951;29;20480;-68
2020/12/03 16:28:52;;;;;;;20.30;7.47;;;1.50;97.30;;;;;;4934273;29;20429;-68
2020/12/03 16:31:27;;;;;;;19.10;7.53;;;1.40;97.30;;;;;;4936340;29;20574;-68
2020/12/03 16:33:52;;;;;;;22.87;8.63;;;1.30;97.30;;;;;;4936286;29;20602;-68
2020/12/03 16:36:23;;;;;;;21.50;8.70;;;1.20;97.30;;;;;;4939348;29;20420;-68
2020/12/03 16:38:49;;;;;;;19.33;8.30;;;1.20;97.30;;;;;;4917414;29;20196;-68
2020/12/03 16:41:15;;;;;;;17.17;8.60;;;1.10;97.30;;;;;;4915440;29;20461;-68
2020/12/03 16:43:40;;;;;;;20.80;8.50;;;1.10;97.30;;;;;;4916840;29;20459;-68
2020/12/03 16:46:06;;;;;;;27.00;10.50;;;1.00;97.30;;;;;;4931945;29;20192;-68
2020/12/03 16:48:32;;;;;;;34.50;12.33;;;1.00;97.30;;;;;;4931563;29;20663;-68
2020/12/03 16:50:57;;;;;;;27.80;11.80;;;1.00;97.30;;;;;;4917301;29;20207;-68
2020/12/03 16:53:23;;;;;;;18.83;8.97;;;0.90;97.30;;;;;;4917142;29;20177;-68
2020/12/03 16:55:49;;;;;;;19.43;9.30;;;0.90;97.30;;;;;;4931377;29;20184;-68
2020/12/03 16:58:15;;;;;;;21.10;8.60;;;0.90;97.30;;;;;;4917152;29;20246;-68
2020/12/03 17:00:41;;;;;;;21.43;9.40;;;0.90;97.30;;;;;;4930415;29;20663;-67
2020/12/03 17:03:07;;;;;;;23.50;9.57;;;0.90;97.30;;;;;;4896711;29;20429;-68
2020/12/03 17:05:32;;;;;;;24.20;10.23;;;0.80;97.30;;;;;;4898361;29;20210;-68
2020/12/03 17:07:58;;;;;;;24.03;9.37;;;0.80;97.30;;;;;;4896641;29;20694;-68
2020/12/03 17:10:24;;;;;;;19.67;9.53;;;0.70;97.30;;;;;;4896930;29;20224;-68
2020/12/03 17:12:51;;;;;;;19.37;10.00;;;0.70;97.30;;;;;;4896800;29;20549;-68
2020/12/03 17:15:17;;;;;;;19.60;8.67;;;0.70;97.30;;;;;;4897734;29;20184;-68
2020/12/03 17:17:42;;;;;;;22.23;9.10;;;0.60;97.30;;;;;;4898292;29;20898;-68
2020/12/03 17:20:08;;;;;;;20.83;9.50;;;0.60;97.30;;;;;;4896800;29;20469;-68
2020/12/03 17:22:34;;;;;;;27.40;9.80;;;0.50;97.30;;;;;;4896622;29;20209;-68
2020/12/03 17:25:01;;;;;;;22.03;8.97;;;0.50;97.30;;;;;;4896678;29;20422;-68
2020/12/03 17:27:28;;;;;;;19.00;9.27;;;0.50;97.30;;;;;;4896789;29;20203;-68
2020/12/03 17:29:54;;;;;;;23.63;9.97;;;0.40;97.30;;;;;;4898095;29;20405;-68
2020/12/03 17:32:20;;;;;;;26.40;11.17;;;0.40;97.30;;;;;;4897965;29;20444;-68
2020/12/03 17:34:46;;;;;;;27.87;11.30;;;0.30;97.30;;;;;;4896508;29;20192;-68
2020/12/03 17:37:13;;;;;;;27.20;11.97;;;0.30;97.30;;;;;;4897926;29;20426;-68
2020/12/03 17:39:39;;;;;;;23.70;11.43;;;0.30;97.30;;;;;;4897691;29;20215;-68
2020/12/03 17:42:07;;;;;;;26.87;10.97;;;0.30;97.30;;;;;;4896663;29;20857;-68
2020/12/03 17:44:34;;;;;;;25.77;10.43;;;0.30;97.30;;;;;;4897344;29;20445;-68
2020/12/03 17:47:00;;;;;;;29.33;10.90;;;0.30;97.30;;;;;;4896428;29;20429;-68
2020/12/03 17:49:26;;;;;;;31.03;10.93;;;0.30;97.30;;;;;;4896734;29;20430;-68
2020/12/03 17:51:52;;;;;;;23.70;9.90;;;0.30;97.30;;;;;;4897942;29;20510;-68
2020/12/03 17:54:18;;;;;;;24.20;8.97;;;0.30;97.30;;;;;;4900037;29;20551;-68
2020/12/03 17:56:51;;;;;;;27.67;10.83;;;0.30;97.30;;;;;;4901939;29;20417;-67
2020/12/03 17:59:17;;;;;;;22.23;10.00;;;0.30;97.30;;;;;;4900164;29;20468;-68
2020/12/03 18:01:42;;;;;;;21.60;9.20;;;0.30;97.30;;;;;;4900087;29;20999;-68
2020/12/03 18:04:08;;;;;;;23.90;10.37;;;0.20;97.30;;;;;;4901374;29;20401;-68
2020/12/03 18:06:34;;;;;;;25.67;11.83;;;0.20;97.30;;;;;;4901568;29;20181;-68
2020/12/03 18:08:59;;;;;;;27.83;10.77;;;0.20;97.30;;;;;;4901435;29;20228;-68
2020/12/03 18:11:26;;;;;;;27.63;11.27;;;0.20;97.30;;;;;;4900500;29;20207;-69
2020/12/03 18:13:52;;;;;;;25.30;11.30;;;0.20;97.30;;;;;;4901459;29;20188;-68
2020/12/03 18:16:17;;;;;;;32.83;10.57;;;0.10;97.30;;;;;;4901601;29;20425;-68
2020/12/03 18:18:43;;;;;;;29.33;12.03;;;0.10;97.30;;;;;;4900896;29;20211;-68
2020/12/03 18:21:09;;;;;;;30.30;11.43;;;0.00;97.30;;;;;;4899755;29;20241;-68
2020/12/03 18:23:34;;;;;;;25.50;10.20;;;0.00;97.30;;;;;;4900845;29;20185;-67
2020/12/03 18:26:00;;;;;;;30.37;12.33;;;0.00;97.30;;;;;;4899727;29;20236;-67
2020/12/03 18:28:25;;;;;;;25.57;10.90;;;0.00;97.30;;;;;;4899806;29;20185;-67
2020/12/03 18:30:51;;;;;;;21.93;11.40;;;-0.10;97.30;;;;;;4899858;29;20205;-67
2020/12/03 18:33:17;;;;;;;24.43;10.07;;;-0.10;97.30;;;;;;4901093;29;20177;-67
2020/12/03 18:35:42;;;;;;;25.13;11.70;;;-0.20;97.30;;;;;;4900657;29;20177;-67
2020/12/03 18:38:08;;;;;;;28.73;12.10;;;-0.20;97.30;;;;;;4900755;29;20189;-67
2020/12/03 18:40:34;;;;;;;29.30;12.50;;;-0.20;97.30;;;;;;4899384;29;20220;-67
2020/12/03 18:42:59;;;;;;;27.63;11.80;;;-0.20;97.30;;;;;;4899176;29;20218;-67
2020/12/03 18:45:25;;;;;;;27.90;11.37;;;-0.20;97.30;;;;;;4900538;29;20165;-68
2020/12/03 18:47:51;;;;;;;31.23;11.93;;;-0.20;97.30;;;;;;4915176;29;20272;-67
2020/12/03 18:50:16;;;;;;;28.73;11.87;;;-0.20;97.30;;;;;;4900285;29;20645;-67
2020/12/03 18:52:42;;;;;;;31.83;11.83;;;-0.30;97.30;;;;;;4899254;29;20188;-67
2020/12/03 18:55:07;;;;;;;30.83;11.57;;;-0.30;97.30;;;;;;4898591;29;20237;-67
2020/12/03 18:57:33;;;;;;;23.13;11.23;;;-0.30;97.30;;;;;;4900401;29;20173;-67
2020/12/03 19:00:00;;;;;;;33.47;12.73;;;-0.20;97.30;;;;;;4900121;29;20267;-67
2020/12/03 19:02:26;;;;;;;28.40;12.20;;;-0.20;97.30;;;;;;4900298;29;20256;-67